Time;durP1;ratioP1;P1;durP2;ratioP2;P2;SDS_P1;SDS_P2;PMS_P1;PMS_P2;Temp;Humidity;BMP_temperature;BMP_pressure;BME280_temperature;BME280_humidity;BME280_pressure;Samples;Min_cycle;Max_cycle;Signal;HPM_P1;HPM_P2
2022/01/31 00:01:41;;;;;;;17.10;3.83;;;;;;;;;;5064946;28;20027;-76
2022/01/31 00:04:07;;;;;;;18.85;4.22;;;;;;;;;;5066435;28;20056;-76
2022/01/31 00:06:34;;;;;;;12.80;3.88;;;;;;;;;;5072017;28;20182;-77
2022/01/31 00:08:59;;;;;;;15.18;3.70;;;;;;;;;;5063964;28;20051;-77
2022/01/31 00:11:25;;;;;;;17.80;4.10;;;;;;;;;;5066967;28;20033;-76
2022/01/31 00:14:00;;;;;;;14.35;3.90;;;;;;;;;;5069145;28;20248;-76
2022/01/31 00:16:31;;;;;;;13.32;3.83;;;;;;;;;;5068242;28;20025;-76
2022/01/31 00:18:56;;;;;;;10.05;3.25;;;;;;;;;;5069172;28;20031;-76
2022/01/31 00:21:22;;;;;;;18.20;3.95;;;;;;;;;;5069302;28;20054;-77
2022/01/31 00:23:47;;;;;;;13.57;3.80;;;;;;;;;;5070693;28;20053;-77
2022/01/31 00:26:12;;;;;;;11.57;3.35;;;;;;;;;;5072979;28;20051;-76
2022/01/31 00:28:38;;;;;;;10.48;3.05;;;;;;;;;;5067162;28;20202;-76
2022/01/31 00:31:04;;;;;;;12.10;3.15;;;;;;;;;;5068789;28;20028;-75
2022/01/31 00:33:29;;;;;;;14.32;3.55;;;;;;;;;;5081461;28;20107;-76
2022/01/31 00:35:54;;;;;;;14.15;3.67;;;;;;;;;;5074649;28;20052;-78
2022/01/31 00:38:20;;;;;;;11.70;3.38;;;;;;;;;;5070599;28;20048;-78
2022/01/31 00:40:45;;;;;;;18.50;3.63;;;;;;;;;;5055253;28;20032;-77
2022/01/31 00:43:12;;;;;;;14.25;3.70;;;;;;;;;;5087347;28;20100;-81
2022/01/31 00:45:45;;;;;;;14.98;2.92;;;;;;;;;;5082941;28;20029;-76
2022/01/31 00:48:17;;;;;;;21.00;3.47;;;;;;;;;;5078989;28;20020;-77
2022/01/31 00:50:46;;;;;;;11.73;3.50;;;;;;;;;;5071456;28;20163;-77
2022/01/31 00:53:12;;;;;;;12.88;3.30;;;;;;;;;;5065422;28;20317;-82
2022/01/31 00:55:37;;;;;;;16.67;3.70;;;;;;;;;;5070411;28;20084;-77
2022/01/31 00:58:03;;;;;;;17.48;3.80;;;;;;;;;;5050036;28;20325;-77
2022/01/31 01:00:28;;;;;;;14.15;3.20;;;;;;;;;;5069979;28;20024;-79
2022/01/31 01:02:53;;;;;;;16.92;3.38;;;;;;;;;;5068732;28;20065;-77
2022/01/31 01:05:19;;;;;;;15.20;3.47;;;;;;;;;;5068143;28;20025;-77
2022/01/31 01:07:46;;;;;;;16.63;3.75;;;;;;;;;;5066398;28;20349;-77
2022/01/31 01:10:13;;;;;;;10.30;2.83;;;;;;;;;;5071552;28;20236;-76
2022/01/31 01:12:38;;;;;;;14.07;3.50;;;;;;;;;;5068214;28;20029;-77
2022/01/31 01:15:04;;;;;;;15.82;3.10;;;;;;;;;;5067069;28;20021;-77
2022/01/31 01:17:30;;;;;;;13.75;3.30;;;;;;;;;;5069442;28;20028;-76
2022/01/31 01:19:55;;;;;;;13.82;2.72;;;;;;;;;;5067793;28;20086;-78
2022/01/31 01:22:20;;;;;;;12.15;2.90;;;;;;;;;;5069458;28;20336;-76
2022/01/31 01:24:48;;;;;;;15.60;3.10;;;;;;;;;;5071178;28;20016;-77
2022/01/31 01:27:14;;;;;;;10.82;2.97;;;;;;;;;;5071530;28;20032;-76
2022/01/31 01:29:40;;;;;;;11.82;2.58;;;;;;;;;;5067553;28;20047;-76
2022/01/31 01:32:06;;;;;;;18.88;3.17;;;;;;;;;;5069297;28;20048;-76
2022/01/31 01:34:33;;;;;;;13.27;2.90;;;;;;;;;;5073229;28;20132;-76
2022/01/31 01:37:00;;;;;;;16.73;2.80;;;;;;;;;;5069741;28;20021;-76
2022/01/31 01:39:26;;;;;;;11.63;2.78;;;;;;;;;;5073749;28;20016;-77
2022/01/31 01:41:52;;;;;;;15.35;2.80;;;;;;;;;;5066765;28;20053;-77
2022/01/31 01:44:17;;;;;;;11.73;2.30;;;;;;;;;;5066273;28;20055;-76
2022/01/31 01:46:43;;;;;;;12.18;2.40;;;;;;;;;;5068400;28;20031;-76
2022/01/31 01:49:08;;;;;;;15.27;3.20;;;;;;;;;;5070304;28;20025;-76
2022/01/31 01:51:33;;;;;;;12.25;3.05;;;;;;;;;;5064992;28;20032;-76
2022/01/31 01:53:59;;;;;;;12.70;2.60;;;;;;;;;;5066444;28;20020;-75
2022/01/31 01:56:25;;;;;;;12.25;2.78;;;;;;;;;;5077252;28;20048;-76
2022/01/31 01:58:50;;;;;;;13.07;2.28;;;;;;;;;;5077291;28;20021;-76
2022/01/31 02:01:16;;;;;;;14.70;2.70;;;;;;;;;;5080814;28;20020;-75
2022/01/31 02:03:41;;;;;;;14.30;2.92;;;;;;;;;;5078174;28;20463;-76
2022/01/31 02:06:08;;;;;;;18.95;2.75;;;;;;;;;;5080605;28;20050;-76
2022/01/31 02:08:41;;;;;;;9.98;2.40;;;;;;;;;;5081671;28;20338;-76
2022/01/31 02:11:08;;;;;;;12.35;2.30;;;;;;;;;;5081196;28;20346;-77
2022/01/31 02:13:36;;;;;;;14.20;2.60;;;;;;;;;;5081316;28;20048;-76
2022/01/31 02:16:02;;;;;;;15.38;2.30;;;;;;;;;;5076458;28;20434;-76
2022/01/31 02:18:29;;;;;;;12.85;3.13;;;;;;;;;;5081198;28;20028;-75
2022/01/31 02:20:55;;;;;;;14.43;2.42;;;;;;;;;;5075251;28;20025;-76
2022/01/31 02:23:21;;;;;;;13.15;2.55;;;;;;;;;;5080048;28;20263;-76
2022/01/31 02:25:58;;;;;;;13.57;2.65;;;;;;;;;;5080963;28;20197;-76
2022/01/31 02:28:26;;;;;;;17.00;3.03;;;;;;;;;;5080506;28;20028;-76
2022/01/31 02:30:52;;;;;;;19.85;2.80;;;;;;;;;;5075570;28;20087;-77
2022/01/31 02:33:19;;;;;;;11.57;2.25;;;;;;;;;;5078223;28;20160;-76
2022/01/31 02:35:46;;;;;;;14.50;2.30;;;;;;;;;;5080313;28;20021;-76
2022/01/31 02:38:12;;;;;;;14.82;3.00;;;;;;;;;;5080906;28;20028;-74
2022/01/31 02:40:37;;;;;;;17.02;2.80;;;;;;;;;;5080837;28;20032;-76
2022/01/31 02:43:02;;;;;;;14.63;2.55;;;;;;;;;;5080402;28;20415;-75
2022/01/31 02:45:30;;;;;;;16.83;2.58;;;;;;;;;;5080174;28;20031;-76
2022/01/31 02:47:58;;;;;;;14.48;2.40;;;;;;;;;;5061826;28;20032;-77
2022/01/31 02:50:23;;;;;;;15.52;2.80;;;;;;;;;;5059903;28;20055;-76
2022/01/31 02:52:57;;;;;;;14.15;2.45;;;;;;;;;;5080163;28;20092;-77
2022/01/31 02:55:23;;;;;;;11.85;2.17;;;;;;;;;;5067388;28;20329;-76
2022/01/31 02:57:48;;;;;;;17.38;2.50;;;;;;;;;;5080514;28;20073;-76
2022/01/31 03:00:14;;;;;;;13.07;2.17;;;;;;;;;;5080561;28;20016;-76
2022/01/31 03:02:40;;;;;;;13.10;2.70;;;;;;;;;;5079867;28;20039;-77
2022/01/31 03:05:05;;;;;;;9.82;2.30;;;;;;;;;;5080705;28;20040;-77
2022/01/31 03:07:31;;;;;;;10.88;2.38;;;;;;;;;;5080702;28;20047;-77
2022/01/31 03:09:56;;;;;;;12.40;2.65;;;;;;;;;;5073396;28;20032;-76
2022/01/31 03:12:22;;;;;;;11.25;2.60;;;;;;;;;;5080135;28;20036;-76
2022/01/31 03:14:48;;;;;;;14.52;2.58;;;;;;;;;;5080362;28;20077;-77
2022/01/31 03:17:13;;;;;;;14.98;2.72;;;;;;;;;;5080214;28;20373;-75
2022/01/31 03:19:42;;;;;;;19.27;2.85;;;;;;;;;;5080178;28;20044;-75
2022/01/31 03:22:08;;;;;;;11.00;2.33;;;;;;;;;;5085975;28;20027;-77
2022/01/31 03:24:35;;;;;;;10.85;2.25;;;;;;;;;;5080286;28;20299;-75
2022/01/31 03:27:00;;;;;;;12.38;2.58;;;;;;;;;;5079346;28;20013;-76
2022/01/31 03:29:26;;;;;;;18.83;3.08;;;;;;;;;;5080232;28;20337;-75
2022/01/31 03:31:51;;;;;;;15.10;2.70;;;;;;;;;;5086837;28;20062;-76
2022/01/31 03:34:17;;;;;;;10.88;2.30;;;;;;;;;;5077092;28;20017;-76
2022/01/31 03:36:43;;;;;;;12.57;2.38;;;;;;;;;;5079169;28;20235;-76
2022/01/31 03:39:09;;;;;;;10.77;2.25;;;;;;;;;;5079932;28;20320;-77
2022/01/31 03:41:35;;;;;;;13.52;2.42;;;;;;;;;;5078981;28;20022;-75
2022/01/31 03:44:00;;;;;;;16.23;2.90;;;;;;;;;;5061656;28;20028;-76
2022/01/31 03:46:26;;;;;;;11.43;2.60;;;;;;;;;;5083611;28;20020;-77
2022/01/31 03:48:52;;;;;;;14.48;2.30;;;;;;;;;;5082053;28;20020;-76
2022/01/31 03:51:17;;;;;;;13.18;2.60;;;;;;;;;;5083717;28;20044;-76
2022/01/31 03:53:43;;;;;;;14.30;2.53;;;;;;;;;;5083079;28;20036;-75
2022/01/31 03:56:08;;;;;;;18.90;2.85;;;;;;;;;;5083677;28;20024;-75
2022/01/31 03:58:33;;;;;;;12.68;2.35;;;;;;;;;;5083877;28;20143;-76
2022/01/31 04:00:59;;;;;;;16.45;3.17;;;;;;;;;;5082893;28;20491;-76
2022/01/31 04:03:24;;;;;;;18.15;2.72;;;;;;;;;;5057988;28;20236;-75
2022/01/31 04:05:50;;;;;;;16.30;2.63;;;;;;;;;;5063932;28;20086;-75
2022/01/31 04:08:15;;;;;;;18.23;2.72;;;;;;;;;;5062964;28;20047;-76
2022/01/31 04:10:41;;;;;;;13.48;2.38;;;;;;;;;;5062239;28;20283;-76
2022/01/31 04:13:06;;;;;;;14.52;2.65;;;;;;;;;;5058149;28;20317;-75
2022/01/31 04:15:35;;;;;;;13.50;2.60;;;;;;;;;;5063257;28;20321;-75
2022/01/31 04:18:01;;;;;;;14.70;2.80;;;;;;;;;;5044583;28;20256;-77
2022/01/31 04:20:26;;;;;;;16.13;2.55;;;;;;;;;;5063430;28;20017;-76
2022/01/31 04:22:57;;;;;;;16.42;2.53;;;;;;;;;;5063496;28;20332;-75
2022/01/31 04:25:43;;;;;;;12.23;2.53;;;;;;;;;;5058983;28;20209;-76
2022/01/31 04:28:25;;;;;;;9.20;2.40;;;;;;;;;;5063030;28;20036;-75
2022/01/31 04:33:22;;;;;;;12.25;2.60;;;;;;;;;;5062114;28;20213;-75
2022/01/31 04:35:48;;;;;;;11.02;2.17;;;;;;;;;;5062920;28;20029;-75
2022/01/31 04:38:15;;;;;;;14.52;2.78;;;;;;;;;;5062405;28;20051;-75
2022/01/31 04:40:40;;;;;;;8.65;2.53;;;;;;;;;;5063137;28;20221;-75
2022/01/31 04:43:06;;;;;;;11.98;2.10;;;;;;;;;;5058438;28;20348;-75
2022/01/31 04:45:31;;;;;;;11.02;2.47;;;;;;;;;;5061184;28;20028;-75
2022/01/31 04:47:57;;;;;;;11.35;2.47;;;;;;;;;;5062669;28;20024;-75
2022/01/31 04:50:22;;;;;;;10.20;2.40;;;;;;;;;;5062611;28;20092;-74
2022/01/31 04:52:47;;;;;;;11.48;2.17;;;;;;;;;;5062597;28;20209;-74
2022/01/31 04:55:13;;;;;;;7.03;1.90;;;;;;;;;;5061997;28;20028;-75
2022/01/31 04:57:39;;;;;;;7.40;1.95;;;;;;;;;;5056942;28;20086;-75
2022/01/31 05:00:07;;;;;;;10.48;2.00;;;;;;;;;;5062016;28;20091;-74
2022/01/31 05:02:33;;;;;;;7.10;2.03;;;;;;;;;;5062675;28;20103;-75
2022/01/31 05:04:59;;;;;;;8.20;1.80;;;;;;;;;;5082544;28;20029;-75
2022/01/31 05:07:26;;;;;;;7.90;2.40;;;;;;;;;;5082050;28;20445;-74
2022/01/31 05:09:51;;;;;;;7.85;1.70;;;;;;;;;;5082644;28;20020;-76
2022/01/31 05:12:17;;;;;;;5.75;1.52;;;;;;;;;;5062686;28;20028;-75
2022/01/31 05:14:42;;;;;;;8.18;1.70;;;;;;;;;;5077780;28;20042;-75
2022/01/31 05:17:07;;;;;;;8.02;1.80;;;;;;;;;;5082737;28;20029;-74
2022/01/31 05:19:33;;;;;;;9.98;2.10;;;;;;;;;;5082282;28;20106;-76
2022/01/31 05:21:58;;;;;;;7.45;1.80;;;;;;;;;;5082083;28;20020;-74
2022/01/31 05:24:24;;;;;;;7.00;1.80;;;;;;;;;;5082596;28;20017;-74
2022/01/31 05:26:51;;;;;;;9.68;2.08;;;;;;;;;;5081871;28;20039;-75
2022/01/31 05:29:20;;;;;;;6.80;1.70;;;;;;;;;;5069099;28;20036;-74
2022/01/31 05:31:46;;;;;;;6.97;2.13;;;;;;;;;;5071629;28;20070;-76
2022/01/31 05:34:12;;;;;;;7.93;2.00;;;;;;;;;;5076146;28;20233;-75
2022/01/31 05:36:39;;;;;;;3.65;1.42;;;;;;;;;;5088374;28;20478;-75
2022/01/31 05:39:04;;;;;;;7.03;1.50;;;;;;;;;;5081577;28;20024;-75
2022/01/31 05:41:30;;;;;;;5.75;1.60;;;;;;;;;;5062834;28;20062;-74
2022/01/31 05:43:55;;;;;;;5.93;1.73;;;;;;;;;;5075503;28;20028;-74
2022/01/31 05:46:21;;;;;;;9.70;2.10;;;;;;;;;;5081397;28;20056;-74
2022/01/31 05:48:46;;;;;;;6.78;1.70;;;;;;;;;;5063566;28;20292;-74
2022/01/31 05:51:17;;;;;;;9.82;1.92;;;;;;;;;;5075478;28;20151;-75
2022/01/31 05:53:44;;;;;;;5.38;1.38;;;;;;;;;;5076794;28;20028;-75
2022/01/31 05:56:10;;;;;;;9.02;2.60;;;;;;;;;;5081677;28;20216;-75
2022/01/31 05:58:36;;;;;;;6.15;1.50;;;;;;;;;;5081372;28;20420;-74
2022/01/31 06:01:01;;;;;;;6.13;1.48;;;;;;;;;;5081502;28;20028;-75
2022/01/31 06:03:27;;;;;;;7.28;1.52;;;;;;;;;;5078950;28;20333;-75
2022/01/31 06:05:52;;;;;;;6.85;1.40;;;;;;;;;;5079172;28;20024;-74
2022/01/31 06:08:17;;;;;;;5.72;1.13;;;;;;;;;;5078662;28;20024;-74
2022/01/31 06:10:45;;;;;;;10.55;1.88;;;;;;;;;;5077828;28;20131;-74
2022/01/31 06:13:11;;;;;;;5.65;1.30;;;;;;;;;;5078992;28;20339;-76
2022/01/31 06:15:36;;;;;;;9.30;1.95;;;;;;;;;;5080996;28;20024;-76
2022/01/31 06:18:01;;;;;;;9.88;1.65;;;;;;;;;;5078534;28;20028;-76
2022/01/31 06:20:27;;;;;;;7.25;1.48;;;;;;;;;;5087516;28;20036;-75
2022/01/31 06:22:53;;;;;;;11.65;2.42;;;;;;;;;;5076283;28;20019;-74
2022/01/31 06:25:20;;;;;;;6.18;1.25;;;;;;;;;;5081034;28;20088;-75
2022/01/31 06:27:46;;;;;;;6.10;1.73;;;;;;;;;;5080942;28;20025;-76
2022/01/31 06:30:13;;;;;;;10.02;1.52;;;;;;;;;;5079874;28;20224;-75
2022/01/31 06:32:39;;;;;;;6.82;1.10;;;;;;;;;;5087205;28;20036;-75
2022/01/31 06:35:05;;;;;;;9.00;1.67;;;;;;;;;;5079447;28;20031;-83
2022/01/31 06:37:31;;;;;;;10.35;1.65;;;;;;;;;;5080436;28;20028;-76
2022/01/31 06:39:56;;;;;;;7.90;1.52;;;;;;;;;;5080343;28;20197;-75
2022/01/31 06:42:22;;;;;;;8.60;1.90;;;;;;;;;;5079820;28;20028;-76
2022/01/31 06:44:47;;;;;;;8.07;1.60;;;;;;;;;;5080677;28;20066;-76
2022/01/31 06:47:12;;;;;;;4.25;1.42;;;;;;;;;;5062649;28;20020;-76
2022/01/31 06:49:38;;;;;;;6.47;1.42;;;;;;;;;;5078544;28;20036;-80
2022/01/31 06:52:05;;;;;;;6.78;1.60;;;;;;;;;;5070702;28;20036;-75
2022/01/31 06:54:30;;;;;;;11.70;1.88;;;;;;;;;;5076845;28;20055;-80
2022/01/31 06:56:57;;;;;;;14.48;1.80;;;;;;;;;;5074694;28;20029;-79
2022/01/31 06:59:22;;;;;;;9.40;1.60;;;;;;;;;;5066832;28;20033;-77
2022/01/31 07:01:48;;;;;;;8.63;1.63;;;;;;;;;;5069657;28;20035;-76
2022/01/31 07:04:13;;;;;;;7.95;1.50;;;;;;;;;;5075704;28;20359;-79
2022/01/31 07:06:39;;;;;;;10.05;1.70;;;;;;;;;;5071240;28;20060;-74
2022/01/31 07:09:04;;;;;;;7.40;1.83;;;;;;;;;;5078387;28;20020;-75
2022/01/31 07:11:34;;;;;;;7.63;1.60;;;;;;;;;;5078552;28;20021;-76
2022/01/31 07:14:03;;;;;;;10.98;2.50;;;;;;;;;;5061403;28;20088;-74
2022/01/31 07:16:28;;;;;;;7.50;1.52;;;;;;;;;;5079146;28;20016;-74
2022/01/31 07:19:02;;;;;;;9.63;1.70;;;;;;;;;;5079421;28;20027;-74
2022/01/31 07:21:34;;;;;;;8.15;1.55;;;;;;;;;;5079843;28;20047;-74
2022/01/31 07:26:28;;;;;;;8.10;1.80;;;;;;;;;;5080322;28;20328;-74
2022/01/31 07:28:53;;;;;;;6.05;1.70;;;;;;;;;;5080028;28;20071;-74
2022/01/31 07:31:18;;;;;;;9.82;1.58;;;;;;;;;;5080203;28;20092;-74
2022/01/31 07:33:44;;;;;;;11.07;1.92;;;;;;;;;;5080134;28;20216;-74
2022/01/31 07:36:09;;;;;;;4.40;1.33;;;;;;;;;;5080018;28;20028;-74
2022/01/31 07:38:35;;;;;;;11.00;1.98;;;;;;;;;;5080403;28;20024;-75
2022/01/31 07:41:01;;;;;;;13.32;2.08;;;;;;;;;;5079824;28;20047;-73
2022/01/31 07:43:27;;;;;;;7.65;1.58;;;;;;;;;;5062264;28;20020;-74
2022/01/31 07:45:53;;;;;;;7.18;1.90;;;;;;;;;;5080109;28;20309;-75
2022/01/31 07:48:18;;;;;;;5.78;1.67;;;;;;;;;;5086483;28;20027;-74
2022/01/31 07:50:43;;;;;;;11.57;1.80;;;;;;;;;;5079661;28;20099;-75
2022/01/31 07:53:09;;;;;;;12.20;1.70;;;;;;;;;;5079603;28;20101;-75
2022/01/31 07:55:35;;;;;;;8.85;2.28;;;;;;;;;;5079781;28;20254;-74
2022/01/31 07:58:01;;;;;;;8.23;1.70;;;;;;;;;;5079771;28;20073;-75
2022/01/31 08:00:27;;;;;;;9.43;1.73;;;;;;;;;;5079729;28;20024;-75
2022/01/31 08:02:53;;;;;;;7.85;1.70;;;;;;;;;;5079541;28;20090;-74
2022/01/31 08:05:21;;;;;;;12.10;2.15;;;;;;;;;;5079981;28;20035;-74
2022/01/31 08:07:47;;;;;;;4.97;1.23;;;;;;;;;;5079333;28;20203;-75
2022/01/31 08:10:13;;;;;;;7.97;1.70;;;;;;;;;;5079558;28;20029;-75
2022/01/31 08:12:41;;;;;;;6.75;2.05;;;;;;;;;;5079559;28;20093;-75
2022/01/31 08:15:08;;;;;;;7.68;1.48;;;;;;;;;;5079760;28;20092;-74
2022/01/31 08:17:34;;;;;;;11.05;1.73;;;;;;;;;;5079812;28;20131;-74
2022/01/31 08:19:59;;;;;;;9.07;1.65;;;;;;;;;;5085957;28;20067;-75
2022/01/31 08:22:25;;;;;;;9.80;1.60;;;;;;;;;;5079317;28;20308;-76
2022/01/31 08:24:50;;;;;;;8.00;1.85;;;;;;;;;;5079710;28;20025;-76
2022/01/31 08:27:16;;;;;;;10.88;1.58;;;;;;;;;;5080102;28;20024;-74
2022/01/31 08:29:41;;;;;;;5.40;1.23;;;;;;;;;;5079811;28;20016;-73
2022/01/31 08:32:23;;;;;;;6.43;1.40;;;;;;;;;;5080724;28;20036;-73
2022/01/31 08:37:33;;;;;;;11.25;1.70;;;;;;;;;;5088982;28;20031;-74
2022/01/31 08:39:59;;;;;;;10.98;1.77;;;;;;;;;;5083395;28;20091;-75
2022/01/31 08:42:24;;;;;;;10.82;1.70;;;;;;;;;;5082825;28;20039;-75
2022/01/31 08:44:50;;;;;;;11.07;1.80;;;;;;;;;;5083190;28;20039;-75
2022/01/31 08:47:16;;;;;;;9.82;1.83;;;;;;;;;;5071645;28;20382;-75
2022/01/31 08:49:41;;;;;;;8.68;1.45;;;;;;;;;;5081526;28;20095;-75
2022/01/31 08:52:07;;;;;;;8.55;1.33;;;;;;;;;;5082387;28;20036;-75
2022/01/31 08:54:33;;;;;;;8.68;1.80;;;;;;;;;;5082876;28;20027;-75
2022/01/31 08:56:59;;;;;;;6.70;1.52;;;;;;;;;;5089295;28;20484;-75
2022/01/31 08:59:26;;;;;;;12.48;1.83;;;;;;;;;;5088519;28;20035;-76
2022/01/31 09:01:54;;;;;;;13.73;1.85;;;;;;;;;;5084668;28;20024;-75
2022/01/31 09:07:05;;;;;;;12.30;2.42;;;;;;;;;;5089974;28;20027;-75
2022/01/31 09:09:30;;;;;;;10.60;1.80;;;;;;;;;;5086484;28;20029;-75
2022/01/31 09:11:57;;;;;;;6.85;1.20;;;;;;;;;;5082474;28;20032;-76
2022/01/31 09:14:23;;;;;;;4.95;1.27;;;;;;;;;;5082323;28;20097;-75
2022/01/31 09:16:48;;;;;;;12.60;1.70;;;;;;;;;;5082283;28;20101;-75
2022/01/31 09:19:13;;;;;;;9.48;1.95;;;;;;;;;;5082329;28;20248;-75
2022/01/31 09:21:39;;;;;;;11.65;1.65;;;;;;;;;;5082159;28;20128;-74
2022/01/31 09:24:04;;;;;;;10.90;1.63;;;;;;;;;;5082195;28;20107;-76
2022/01/31 09:26:30;;;;;;;10.80;1.73;;;;;;;;;;5081722;28;20025;-76
2022/01/31 09:28:55;;;;;;;12.98;2.00;;;;;;;;;;5064106;28;20025;-75
2022/01/31 09:31:22;;;;;;;8.95;1.85;;;;;;;;;;5087488;28;20073;-75
2022/01/31 09:33:48;;;;;;;10.77;1.58;;;;;;;;;;5080773;28;20260;-75
2022/01/31 09:36:14;;;;;;;24.42;1.98;;;;;;;;;;5065061;28;20071;-75
2022/01/31 09:38:40;;;;;;;10.00;1.38;;;;;;;;;;5064562;28;20308;-76
2022/01/31 09:41:06;;;;;;;10.68;1.60;;;;;;;;;;5088030;28;20142;-78
2022/01/31 09:51:04;;;;;;;12.77;2.13;;;;;;;;;;5081736;28;20062;-75
2022/01/31 09:53:38;;;;;;;12.65;1.80;;;;;;;;;;5081528;28;20053;-76
2022/01/31 09:56:08;;;;;;;9.43;1.60;;;;;;;;;;5081285;28;20332;-74
2022/01/31 09:58:34;;;;;;;5.88;1.17;;;;;;;;;;5081646;28;20024;-77
2022/01/31 10:01:15;;;;;;;5.53;1.40;;;;;;;;;;5081410;28;20108;-76
2022/01/31 10:03:56;;;;;;;11.65;1.60;;;;;;;;;;5081122;28;20119;-74
2022/01/31 10:06:27;;;;;;;10.52;2.00;;;;;;;;;;5081367;28;20255;-74
2022/01/31 10:09:09;;;;;;;7.82;1.70;;;;;;;;;;5081312;28;20025;-75
2022/01/31 10:11:47;;;;;;;10.77;1.85;;;;;;;;;;5081369;28;20025;-74
2022/01/31 10:17:01;;;;;;;10.65;1.20;;;;;;;;;;5080957;28;20114;-73
2022/01/31 10:19:27;;;;;;;12.68;1.88;;;;;;;;;;5081163;28;20079;-74
2022/01/31 10:21:58;;;;;;;9.60;1.77;;;;;;;;;;5080944;28;20103;-74
2022/01/31 10:24:25;;;;;;;8.68;1.55;;;;;;;;;;5081082;28;20023;-74
2022/01/31 10:26:51;;;;;;;8.77;1.85;;;;;;;;;;5080978;28;20035;-74
2022/01/31 10:29:19;;;;;;;12.48;1.52;;;;;;;;;;5083972;28;20096;-74
2022/01/31 10:32:05;;;;;;;5.28;1.30;;;;;;;;;;5080808;28;20032;-74
2022/01/31 10:34:59;;;;;;;8.32;1.42;;;;;;;;;;5074861;28;20329;-74
2022/01/31 10:37:26;;;;;;;6.65;1.40;;;;;;;;;;5077315;28;20113;-74
2022/01/31 10:54:07;;;;;;;10.75;1.65;;;;;;;;;;5076993;28;20028;-75
2022/01/31 10:56:44;;;;;;;11.32;1.60;;;;;;;;;;5080541;28;20051;-74
2022/01/31 10:59:13;;;;;;;6.38;1.67;;;;;;;;;;5075047;28;20035;-74
2022/01/31 11:01:40;;;;;;;9.45;1.60;;;;;;;;;;5080602;28;20077;-75
2022/01/31 11:04:10;;;;;;;6.80;1.13;;;;;;;;;;5080346;28;20223;-74
2022/01/31 11:06:36;;;;;;;5.97;1.10;;;;;;;;;;5079972;28;20039;-74
2022/01/31 11:09:09;;;;;;;8.32;1.75;;;;;;;;;;5080242;28;20325;-75
2022/01/31 11:11:37;;;;;;;9.18;1.52;;;;;;;;;;5079941;28;20229;-74
2022/01/31 11:14:05;;;;;;;3.42;1.00;;;;;;;;;;5080294;28;20020;-74
2022/01/31 11:16:32;;;;;;;8.02;1.50;;;;;;;;;;5080324;28;20029;-74
2022/01/31 11:19:02;;;;;;;4.30;1.40;;;;;;;;;;5080340;28;20355;-74
2022/01/31 11:21:30;;;;;;;12.95;1.95;;;;;;;;;;5079144;28;20104;-74
2022/01/31 11:24:02;;;;;;;15.48;2.03;;;;;;;;;;5080376;28;20277;-74
2022/01/31 11:26:38;;;;;;;4.28;1.23;;;;;;;;;;5080236;28;20032;-74
2022/01/31 11:29:06;;;;;;;8.30;1.60;;;;;;;;;;5080297;28;20089;-74
2022/01/31 11:31:34;;;;;;;8.15;1.45;;;;;;;;;;5079858;28;20220;-74
2022/01/31 11:34:00;;;;;;;5.57;1.30;;;;;;;;;;5080095;28;20031;-74
2022/01/31 11:36:26;;;;;;;6.55;1.20;;;;;;;;;;5079745;28;20040;-75
2022/01/31 11:38:51;;;;;;;7.05;1.60;;;;;;;;;;5079914;28;20040;-77
2022/01/31 11:41:18;;;;;;;8.23;1.67;;;;;;;;;;5080558;28;20021;-78
2022/01/31 11:43:55;;;;;;;5.25;1.30;;;;;;;;;;5091030;28;20033;-75
2022/01/31 11:46:24;;;;;;;8.45;1.25;;;;;;;;;;5079932;28;20024;-74
2022/01/31 11:48:52;;;;;;;5.70;1.30;;;;;;;;;;5080479;28;20028;-74
2022/01/31 11:51:19;;;;;;;6.63;1.40;;;;;;;;;;5079339;28;20028;-74
2022/01/31 11:53:47;;;;;;;14.65;1.40;;;;;;;;;;5080282;28;20350;-74
2022/01/31 11:56:17;;;;;;;8.13;1.52;;;;;;;;;;5079897;28;20024;-73
2022/01/31 11:58:51;;;;;;;6.10;1.75;;;;;;;;;;5084994;28;20032;-74
2022/01/31 12:01:21;;;;;;;14.15;2.03;;;;;;;;;;5080181;28;20048;-73
2022/01/31 12:03:52;;;;;;;12.75;2.03;;;;;;;;;;5079759;28;20051;-75
2022/01/31 12:06:26;;;;;;;12.80;1.90;;;;;;;;;;5087578;28;20024;-75
2022/01/31 12:08:53;;;;;;;11.02;2.38;;;;;;;;;;5092555;28;20016;-75
2022/01/31 12:11:26;;;;;;;8.85;1.52;;;;;;;;;;5083853;28;20028;-77
2022/01/31 12:13:56;;;;;;;3.58;0.98;;;;;;;;;;5089033;28;20122;-75
2022/01/31 12:16:50;;;;;;;4.30;1.20;;;;;;;;;;5083611;28;20042;-76
2022/01/31 12:20:02;;;;;;;5.00;1.10;;;;;;;;;;5065539;28;20186;-75
2022/01/31 12:22:48;;;;;;;4.50;1.23;;;;;;;;;;5079200;28;20033;-75
2022/01/31 12:25:31;;;;;;;3.85;1.02;;;;;;;;;;5071692;28;20065;-74
2022/01/31 12:28:17;;;;;;;4.07;0.85;;;;;;;;;;5078478;28;20024;-75
2022/01/31 12:30:43;;;;;;;4.65;1.20;;;;;;;;;;5064973;28;20050;-74
2022/01/31 12:33:42;;;;;;;5.85;1.30;;;;;;;;;;5082936;28;20020;-74
2022/01/31 12:36:07;;;;;;;4.32;1.13;;;;;;;;;;5078576;28;20020;-75
2022/01/31 12:38:33;;;;;;;2.22;0.85;;;;;;;;;;5082337;28;20032;-77
2022/01/31 12:41:04;;;;;;;6.10;1.45;;;;;;;;;;5081940;28;20032;-77
2022/01/31 12:46:07;;;;;;;8.18;1.75;;;;;;;;;;5082831;28;20216;-77
2022/01/31 12:48:34;;;;;;;10.23;1.58;;;;;;;;;;5082938;28;20040;-78
2022/01/31 12:51:05;;;;;;;10.35;1.17;;;;;;;;;;5082846;28;20032;-76
2022/01/31 12:53:39;;;;;;;5.45;1.17;;;;;;;;;;5065051;28;20107;-75
2022/01/31 12:56:13;;;;;;;3.67;1.20;;;;;;;;;;5083222;28;20024;-77
2022/01/31 12:58:46;;;;;;;7.03;1.35;;;;;;;;;;5084345;28;20094;-75
2022/01/31 13:01:15;;;;;;;3.58;1.00;;;;;;;;;;5083474;28;20059;-75
2022/01/31 13:03:46;;;;;;;6.82;1.10;;;;;;;;;;5082214;28;20037;-75
2022/01/31 13:06:39;;;;;;;3.38;1.00;;;;;;;;;;5089116;28;20020;-75
2022/01/31 13:09:04;;;;;;;4.78;1.00;;;;;;;;;;5078641;28;20032;-75
2022/01/31 13:11:31;;;;;;;13.27;1.92;;;;;;;;;;5082341;28;20031;-76
2022/01/31 13:14:02;;;;;;;6.53;1.27;;;;;;;;;;5082460;28;20070;-77
2022/01/31 13:16:37;;;;;;;6.03;1.10;;;;;;;;;;5088218;28;20073;-75
2022/01/31 13:19:11;;;;;;;4.32;1.05;;;;;;;;;;5081840;28;20024;-76
2022/01/31 13:21:38;;;;;;;11.00;1.48;;;;;;;;;;5082513;28;20032;-75
2022/01/31 13:24:04;;;;;;;3.03;1.20;;;;;;;;;;5082817;28;20028;-76
2022/01/31 13:26:29;;;;;;;2.75;1.02;;;;;;;;;;5082191;28;20028;-76
2022/01/31 13:28:54;;;;;;;4.53;1.10;;;;;;;;;;5064120;28;20028;-75
2022/01/31 13:31:20;;;;;;;2.90;0.93;;;;;;;;;;5082320;28;20041;-76
2022/01/31 13:33:47;;;;;;;6.90;1.27;;;;;;;;;;5082113;28;20099;-78
2022/01/31 13:36:13;;;;;;;4.88;0.90;;;;;;;;;;5081564;28;20128;-76
2022/01/31 13:38:39;;;;;;;7.85;1.25;;;;;;;;;;5085384;28;20032;-76
2022/01/31 13:41:04;;;;;;;8.85;1.40;;;;;;;;;;5086770;28;20177;-75
2022/01/31 13:43:36;;;;;;;5.50;1.00;;;;;;;;;;5082110;28;20020;-75
2022/01/31 13:46:27;;;;;;;8.55;1.10;;;;;;;;;;5083096;28;20035;-78
2022/01/31 13:51:38;;;;;;;11.20;1.45;;;;;;;;;;5081461;28;20025;-76
2022/01/31 13:54:16;;;;;;;10.63;1.55;;;;;;;;;;5075782;28;20016;-75
2022/01/31 13:56:50;;;;;;;8.95;1.38;;;;;;;;;;5077106;28;20083;-75
2022/01/31 13:59:17;;;;;;;8.30;1.58;;;;;;;;;;5081724;28;20354;-75
2022/01/31 14:01:42;;;;;;;3.60;0.90;;;;;;;;;;5081257;28;20023;-76
2022/01/31 14:04:12;;;;;;;4.88;1.08;;;;;;;;;;5081420;28;20055;-75
2022/01/31 14:06:38;;;;;;;4.43;1.00;;;;;;;;;;5081048;28;20331;-75
2022/01/31 14:09:10;;;;;;;4.43;1.20;;;;;;;;;;5081432;28;20036;-77
2022/01/31 14:11:41;;;;;;;12.23;1.50;;;;;;;;;;5081201;28;20033;-75
2022/01/31 14:14:10;;;;;;;4.82;1.08;;;;;;;;;;5081064;28;20099;-75
2022/01/31 14:16:41;;;;;;;6.57;1.15;;;;;;;;;;5081616;28;20035;-77
2022/01/31 14:19:08;;;;;;;4.13;0.90;;;;;;;;;;5081718;28;20091;-77
2022/01/31 14:21:36;;;;;;;5.82;1.30;;;;;;;;;;5081424;28;20032;-75
2022/01/31 14:24:03;;;;;;;5.43;1.23;;;;;;;;;;5080976;28;20032;-75
2022/01/31 14:26:41;;;;;;;6.63;1.35;;;;;;;;;;5080593;28;20032;-76
2022/01/31 14:29:14;;;;;;;5.70;1.30;;;;;;;;;;5080806;28;20243;-75
2022/01/31 14:31:46;;;;;;;4.38;1.30;;;;;;;;;;5080782;28;20027;-75
2022/01/31 14:34:14;;;;;;;5.82;1.23;;;;;;;;;;5080776;28;20030;-76
2022/01/31 14:36:45;;;;;;;4.30;1.30;;;;;;;;;;5080247;28;20021;-75
2022/01/31 14:47:47;;;;;;;9.05;1.50;;;;;;;;;;5076213;28;20028;-76
2022/01/31 14:50:17;;;;;;;7.30;1.42;;;;;;;;;;5081036;28;20020;-75
2022/01/31 14:52:43;;;;;;;1.02;0.60;;;;;;;;;;5079917;28;20335;-75
2022/01/31 14:55:11;;;;;;;5.47;0.93;;;;;;;;;;5080753;28;20025;-76
2022/01/31 14:57:38;;;;;;;6.22;1.20;;;;;;;;;;5080357;28;20020;-76
2022/01/31 15:00:07;;;;;;;5.25;1.20;;;;;;;;;;5080697;28;20024;-77
2022/01/31 15:02:33;;;;;;;5.68;0.90;;;;;;;;;;5080318;28;20021;-76
2022/01/31 15:05:08;;;;;;;5.30;1.20;;;;;;;;;;5080276;28;20021;-76
2022/01/31 15:07:33;;;;;;;6.88;1.40;;;;;;;;;;5080055;28;20016;-78
2022/01/31 15:09:59;;;;;;;5.55;1.52;;;;;;;;;;5080542;28;20025;-77
2022/01/31 15:12:25;;;;;;;2.15;0.70;;;;;;;;;;5079976;28;20318;-77
2022/01/31 15:14:50;;;;;;;8.82;1.23;;;;;;;;;;5080736;28;20126;-75
2022/01/31 15:17:16;;;;;;;6.60;1.27;;;;;;;;;;5080446;28;20028;-76
2022/01/31 15:19:41;;;;;;;4.88;1.20;;;;;;;;;;5080377;28;20016;-76
2022/01/31 15:22:07;;;;;;;7.53;1.50;;;;;;;;;;5079883;28;20043;-76
2022/01/31 15:24:33;;;;;;;8.48;1.52;;;;;;;;;;5080210;28;20016;-77
2022/01/31 15:26:59;;;;;;;5.40;1.10;;;;;;;;;;5080434;28;20080;-75
2022/01/31 15:29:24;;;;;;;4.78;1.15;;;;;;;;;;5080734;28;20020;-76